»·PEaware :: SKW3350 KONP-KPDX

SKW3350 :: KONP-KPDX

FLIGHT INFORMATION

Flight Status: Arrived
Operator:
SkyWest Airlines
More flights by this operator :: More flights under this callsign
Pilot: Paul K. (16555)
Aircraft: BOEING 727-100
(B721)
More flights by this aircraft type
Origin: KONP Newport Mun
United States
Destination: KPDX Portland Intl
United States
More flights between these airports :: More routes between these airports
Route: ONP V182 UBG
File this flight plan on PilotEdge
Remarks:
Altitude:
(Current/Filed)
13,000ft
Speed:
(Current/Filed)
350kts
Departed: 07-Oct-18 09:11 AM
Arrived: 07-Oct-18 09:36 AM
Distance/Time
Traveled:
87nm/0:25
Distance/Time
To Go:
Arrived

Flight Plot

Page will automatically refresh every two minutes.

Flight plan parsing failed; only flown route is shown


Map Options




Map Legend


Flown Route
Filed Route
Departure Airport
Arrival Airport
Navaid (VOR, NDB)
Fix

Horizontal Profiles

Position Reports

Time Latitude Longitude Heading Altitude Ground
Speed
07-Oct-18 08:54 44.578829 -124.061707 217 172ft 0kts
07-Oct-18 08:55 44.578829 -124.061707 217 172ft 0kts
07-Oct-18 08:56 44.578829 -124.061707 217 172ft 0kts
07-Oct-18 08:57 44.578829 -124.061707 217 172ft 0kts
07-Oct-18 08:58 44.578829 -124.061707 217 172ft 0kts
07-Oct-18 08:59 44.578829 -124.061707 217 172ft 0kts
07-Oct-18 09:00 44.578829 -124.061708 217 172ft 0kts
07-Oct-18 09:01 44.578829 -124.061708 217 172ft 0kts
07-Oct-18 09:02 44.578829 -124.061708 217 172ft 0kts
07-Oct-18 09:03 44.578829 -124.061708 217 172ft 0kts
07-Oct-18 09:04 44.578829 -124.061708 217 172ft 0kts
07-Oct-18 09:05 44.578829 -124.061708 217 172ft 0kts
07-Oct-18 09:06 44.578829 -124.061708 217 172ft 0kts
07-Oct-18 09:07 44.578338 -124.061695 174 172ft 6kts
07-Oct-18 09:08 44.576138 -124.062390 216 172ft 11kts
07-Oct-18 09:09 44.573760 -124.061392 133 172ft 13kts
07-Oct-18 09:10 44.572530 -124.059553 133 172ft 0kts
07-Oct-18 09:11 44.572530 -124.059553 133 172ft 0kts
07-Oct-18 09:12 44.572395 -124.059356 133 172ft 6kts
07-Oct-18 09:13 44.587605 -124.059405 357 563ft 144kts
07-Oct-18 09:14 44.614746 -124.021241 71 2888ft 189kts
07-Oct-18 09:15 44.652432 -123.959138 45 5805ft 253kts
07-Oct-18 09:16 44.700694 -123.889989 39 9812ft 264kts
07-Oct-18 09:17 44.755314 -123.815597 38 12243ft 317kts
07-Oct-18 09:18 44.822347 -123.724142 38 13012ft 364kts
07-Oct-18 09:19 44.896621 -123.622061 38 12996ft 376kts
07-Oct-18 09:20 44.968378 -123.522915 38 12984ft 346kts
07-Oct-18 09:21 45.033545 -123.432666 37 12993ft 312kts
07-Oct-18 09:22 45.091382 -123.351174 38 12996ft 278kts
07-Oct-18 09:23 45.141955 -123.277094 37 13021ft 286kts
07-Oct-18 09:24 45.184717 -123.176356 75 13026ft 338kts
07-Oct-18 09:25 45.198218 -123.044748 76 13014ft 339kts
07-Oct-18 09:26 45.213069 -122.916258 76 12503ft 328kts
07-Oct-18 09:27 45.231137 -122.788548 75 10647ft 334kts
07-Oct-18 09:28 45.250508 -122.664574 75 8710ft 291kts
07-Oct-18 09:29 45.287753 -122.582402 44 6801ft 231kts
07-Oct-18 09:30 45.332050 -122.520308 44 4910ft 233kts
07-Oct-18 09:31 45.380313 -122.451860 44 3685ft 254kts
07-Oct-18 09:32 45.423260 -122.387891 45 3147ft 250kts
07-Oct-18 09:33 45.480020 -122.378109 321 2981ft 215kts
07-Oct-18 09:34 45.522364 -122.430194 298 2881ft 186kts
07-Oct-18 09:35 45.541429 -122.487462 306 1562ft 151kts
07-Oct-18 09:36 45.560684 -122.533035 298 905ft 129kts
07-Oct-18 09:37 45.577573 -122.576326 299 194ft 121kts
07-Oct-18 09:38 45.588718 -122.604346 327 41ft 23kts
07-Oct-18 09:39 45.589790 -122.604145 46 41ft 4kts
07-Oct-18 09:40 45.589168 -122.600584 93 41ft 10kts
07-Oct-18 09:41 45.589600 -122.599491 57 41ft 0kts
07-Oct-18 09:42 45.589600 -122.599491 57 41ft 0kts
07-Oct-18 09:43 45.589600 -122.599491 57 41ft 0kts
07-Oct-18 09:44 45.589600 -122.599491 57 41ft 0kts
07-Oct-18 09:45 45.589600 -122.599491 57 41ft 0kts
07-Oct-18 09:46 45.589600 -122.599491 57 41ft 0kts
07-Oct-18 09:47 45.589600 -122.599491 57 41ft 0kts
07-Oct-18 09:48 45.589600 -122.599491 57 41ft 0kts
07-Oct-18 09:49 45.589600 -122.599491 57 41ft 0kts
07-Oct-18 09:50 45.589600 -122.599491 57 41ft 0kts
07-Oct-18 09:51 45.589600 -122.599491 57 41ft 0kts
07-Oct-18 09:52 45.589600 -122.599491 57 41ft 0kts

Navigation Log

Ident Type
Flight plan parsing failed, navigation log unavailable